createdAt,value
2019-05-11T00:00:06.008Z,100779.72
2019-05-11T00:03:30.143Z,100782.50
2019-05-11T00:06:53.250Z,100784.34
2019-05-11T00:10:16.410Z,100778.63
2019-05-11T00:13:39.475Z,100782.59
2019-05-11T00:17:02.565Z,100771.56
2019-05-11T00:20:26.172Z,100765.20
2019-05-11T00:23:49.190Z,100757.59
2019-05-11T00:27:12.301Z,100756.38
2019-05-11T00:30:35.466Z,100753.53
2019-05-11T00:33:58.641Z,100751.72
2019-05-11T00:37:21.633Z,100753.97
2019-05-11T00:40:44.680Z,100757.12
2019-05-11T00:44:07.818Z,100756.75
2019-05-11T00:47:30.799Z,100751.02
2019-05-11T00:50:53.873Z,100748.22
2019-05-11T00:54:17.001Z,100749.39
2019-05-11T00:57:40.697Z,100742.33
2019-05-11T01:01:03.920Z,100743.48
2019-05-11T01:04:27.507Z,100734.90
2019-05-11T01:07:50.558Z,100726.91
2019-05-11T01:11:13.619Z,100730.84
2019-05-11T01:14:36.660Z,100721.19
2019-05-11T01:17:59.650Z,100727.03
2019-05-11T01:21:22.654Z,100721.20
2019-05-11T01:24:45.687Z,100715.23
2019-05-11T01:28:09.816Z,100708.47
2019-05-11T01:31:32.888Z,100709.91
2019-05-11T01:34:56.021Z,100715.78
2019-05-11T01:38:19.036Z,100715.06
2019-05-11T01:41:43.249Z,100714.57
2019-05-11T01:45:06.696Z,100704.93
2019-05-11T01:48:31.482Z,100694.92
2019-05-11T01:51:54.505Z,100688.22
2019-05-11T01:55:18.021Z,100691.13
2019-05-11T01:58:41.020Z,100693.57
2019-05-11T02:02:04.059Z,100689.95
2019-05-11T02:05:27.843Z,100700.39
2019-05-11T02:08:50.822Z,100697.50
2019-05-11T02:12:14.143Z,100695.95
2019-05-11T02:15:37.571Z,100691.66
2019-05-11T02:19:00.529Z,100694.13
2019-05-11T02:22:23.607Z,100693.70
2019-05-11T02:25:46.649Z,100701.17
2019-05-11T02:29:09.672Z,100710.20
2019-05-11T02:32:32.647Z,100714.37
2019-05-11T02:35:55.711Z,100714.18
2019-05-11T02:39:18.711Z,100718.41
2019-05-11T02:42:41.824Z,100726.16
2019-05-11T02:46:04.860Z,100719.90
2019-05-11T02:49:28.396Z,100714.38
2019-05-11T02:52:51.664Z,100713.33
2019-05-11T02:56:14.658Z,100709.70
2019-05-11T02:59:37.637Z,100717.61
2019-05-11T03:03:00.775Z,100710.38
2019-05-11T03:06:24.179Z,100713.45
2019-05-11T03:09:47.275Z,100711.17
2019-05-11T03:13:10.267Z,100712.35
2019-05-11T03:16:33.492Z,100709.16
2019-05-11T03:19:56.605Z,100713.08
2019-05-11T03:23:19.589Z,100714.08
2019-05-11T03:26:42.847Z,100715.72
2019-05-11T03:30:06.700Z,100716.46
2019-05-11T03:33:29.691Z,100726.69
2019-05-11T03:36:52.790Z,100727.31
2019-05-11T03:40:15.916Z,100725.66
2019-05-11T03:43:38.966Z,100731.41
2019-05-11T03:47:01.948Z,100727.72
2019-05-11T03:50:25.343Z,100714.83
2019-05-11T03:53:48.414Z,100719.88
2019-05-11T03:57:11.738Z,100723.24
2019-05-11T04:00:34.734Z,100729.30
2019-05-11T04:03:57.759Z,100731.28
2019-05-11T04:07:21.866Z,100719.85
2019-05-11T04:10:44.881Z,100716.32
2019-05-11T04:14:08.152Z,100717.27
2019-05-11T04:17:31.220Z,100708.28
2019-05-11T04:20:54.646Z,100703.56
2019-05-11T04:24:17.642Z,100700.98
2019-05-11T04:27:40.643Z,100706.40
2019-05-11T04:31:03.636Z,100708.59
2019-05-11T04:34:26.668Z,100718.05
2019-05-11T04:37:49.772Z,100716.27
2019-05-11T04:41:12.749Z,100717.20
2019-05-11T04:44:35.856Z,100720.25
2019-05-11T04:47:58.870Z,100723.52
2019-05-11T04:51:21.888Z,100724.52
2019-05-11T04:54:44.989Z,100723.88
2019-05-11T04:58:07.998Z,100730.52
2019-05-11T05:01:31.161Z,100722.42
2019-05-11T05:04:54.132Z,100720.16
2019-05-11T05:08:21.199Z,100721.63
2019-05-11T05:11:42.051Z,100724.27
2019-05-11T05:15:06.031Z,100726.10
2019-05-11T05:18:29.048Z,100729.05
2019-05-11T05:21:53.212Z,100730.58
2019-05-11T05:25:16.201Z,100733.17
2019-05-11T05:28:39.499Z,100734.20
2019-05-11T05:32:02.513Z,100732.62
2019-05-11T05:35:25.542Z,100737.58
2019-05-11T05:38:48.584Z,100737.91
2019-05-11T05:42:11.844Z,100735.86
2019-05-11T05:45:34.819Z,100739.80
2019-05-11T05:48:57.842Z,100735.50
2019-05-11T05:52:20.865Z,100743.41
2019-05-11T05:55:44.345Z,100742.64
2019-05-11T05:59:23.617Z,100750.34
2019-05-11T06:02:48.068Z,100753.62
2019-05-11T06:06:12.497Z,100747.48
2019-05-11T06:09:35.567Z,100751.33
2019-05-11T06:12:58.617Z,100754.28
2019-05-11T06:16:21.753Z,100754.47
2019-05-11T06:19:44.765Z,100764.94
2019-05-11T06:23:07.904Z,100775.03
2019-05-11T06:26:31.029Z,100778.71
2019-05-11T06:29:54.098Z,100776.48
2019-05-11T06:33:17.142Z,100774.30
2019-05-11T06:36:40.158Z,100783.94
2019-05-11T06:40:04.149Z,100791.87
2019-05-11T06:43:27.531Z,100784.81
2019-05-11T06:46:50.571Z,100783.48
2019-05-11T06:50:13.981Z,100784.11
2019-05-11T06:53:37.346Z,100783.64
2019-05-11T06:57:00.354Z,100786.69
2019-05-11T07:00:23.350Z,100790.28
2019-05-11T07:03:46.360Z,100786.98
2019-05-11T07:07:09.408Z,100780.75
2019-05-11T07:10:32.882Z,100790.94
2019-05-11T07:13:55.891Z,100791.67
2019-05-11T07:17:19.882Z,100798.64
2019-05-11T07:20:50.636Z,100807.25
2019-05-11T07:24:07.890Z,100813.48
2019-05-11T07:27:30.922Z,100822.34
2019-05-11T07:30:54.347Z,100823.67
2019-05-11T07:34:18.524Z,100819.64
2019-05-11T07:37:41.625Z,100821.94
2019-05-11T07:41:08.608Z,100819.69
2019-05-11T07:44:38.333Z,100822.80
2019-05-11T07:47:58.781Z,100820.91
2019-05-11T07:51:21.294Z,100814.62
2019-05-11T07:54:49.984Z,100817.88
2019-05-11T07:58:11.115Z,100819.22
2019-05-11T08:01:34.685Z,100823.92
2019-05-11T08:04:58.683Z,100831.50
2019-05-11T08:08:24.956Z,100834.17
2019-05-11T08:11:47.801Z,100850.91
2019-05-11T08:15:13.786Z,100853.70
2019-05-11T08:18:38.729Z,100860.23
2019-05-11T08:22:03.048Z,100857.82
2019-05-11T08:25:28.505Z,100867.49
2019-05-11T08:28:51.131Z,100868.66
2019-05-11T08:32:14.165Z,100862.31
2019-05-11T08:35:38.937Z,100875.48
2019-05-11T08:39:02.486Z,100878.09
2019-05-11T08:42:28.677Z,100873.25
2019-05-11T08:45:50.988Z,100874.55
2019-05-11T08:49:15.746Z,100883.26
2019-05-11T08:52:39.521Z,100889.23
2019-05-11T08:56:02.531Z,100897.50
2019-05-11T08:59:27.776Z,100898.07
2019-05-11T09:02:51.151Z,100899.64
2019-05-11T09:06:14.363Z,100906.56
2019-05-11T09:09:38.118Z,100907.91
2019-05-11T09:13:01.487Z,100916.88
2019-05-11T09:16:24.734Z,100920.56
2019-05-11T09:19:48.171Z,100923.38
2019-05-11T09:23:12.524Z,100940.05
2019-05-11T09:26:35.512Z,100934.11
2019-05-11T09:29:59.027Z,100936.17
2019-05-11T09:33:22.191Z,100943.89
2019-05-11T09:36:45.292Z,100947.14
2019-05-11T09:40:08.482Z,100958.23
2019-05-11T09:43:31.618Z,100959.26
2019-05-11T09:46:54.692Z,100965.69
2019-05-11T09:50:18.172Z,100965.36
2019-05-11T09:53:41.300Z,100963.89
2019-05-11T09:57:04.448Z,100967.47
2019-05-11T10:00:29.449Z,100970.42
2019-05-11T10:03:52.747Z,100978.96
2019-05-11T10:07:17.934Z,100984.47
2019-05-11T10:10:40.786Z,100982.02
2019-05-11T10:14:03.927Z,100989.25
2019-05-11T10:17:28.814Z,100990.33
2019-05-11T10:20:51.964Z,100992.01
2019-05-11T10:24:15.086Z,100999.63
2019-05-11T10:27:38.523Z,100999.66
2019-05-11T10:31:02.252Z,101002.41
2019-05-11T10:34:25.685Z,101005.30
2019-05-11T10:37:48.778Z,101015.38
2019-05-11T10:41:11.802Z,101013.63
2019-05-11T10:44:35.055Z,101026.86
2019-05-11T10:48:00.993Z,101038.03
2019-05-11T10:51:23.102Z,101037.94
2019-05-11T10:54:47.815Z,101035.23
2019-05-11T10:58:11.065Z,101036.84
2019-05-11T11:01:34.340Z,101042.30
2019-05-11T11:04:58.828Z,101037.40
2019-05-11T11:08:22.333Z,101038.41
2019-05-11T11:11:49.046Z,101047.91
2019-05-11T11:15:12.306Z,101049.94
2019-05-11T11:18:37.965Z,101055.79
2019-05-11T11:22:28.453Z,101059.42
2019-05-11T11:25:25.826Z,101063.41
2019-05-11T11:28:50.848Z,101073.25
2019-05-11T11:32:13.882Z,101070.02
2019-05-11T11:35:38.481Z,101069.37
2019-05-11T11:39:02.077Z,101081.37
2019-05-11T11:42:25.631Z,101089.16
2019-05-11T11:45:48.690Z,101090.46
2019-05-11T11:49:11.789Z,101092.58
2019-05-11T11:52:34.817Z,101087.23
2019-05-11T11:55:58.789Z,101090.61
2019-05-11T11:59:21.816Z,101096.07
2019-05-11T12:02:45.121Z,101100.48
2019-05-11T12:06:08.784Z,101113.69
2019-05-11T12:09:32.220Z,101115.06
2019-05-11T12:12:55.341Z,101123.19
2019-05-11T12:16:18.400Z,101125.08
2019-05-11T12:19:41.509Z,101127.80
2019-05-11T12:23:04.984Z,101132.05
2019-05-11T12:26:28.295Z,101143.38
2019-05-11T12:29:51.315Z,101146.78
2019-05-11T12:33:14.299Z,101149.32
2019-05-11T12:36:38.755Z,101157.27
2019-05-11T12:40:02.007Z,101160.48
2019-05-11T12:43:24.973Z,101161.45
2019-05-11T12:46:48.870Z,101174.19
2019-05-11T12:50:12.770Z,101180.71
2019-05-11T12:53:37.861Z,101183.58
2019-05-11T12:57:00.788Z,101188.34
2019-05-11T13:00:23.840Z,101208.45
2019-05-11T13:03:49.001Z,101207.89
2019-05-11T13:07:11.769Z,101207.09
2019-05-11T13:10:34.833Z,101222.06
2019-05-11T13:13:58.494Z,101224.44
2019-05-11T13:17:34.149Z,101223.32
2019-05-11T13:20:48.201Z,101223.27
2019-05-11T13:24:11.710Z,101236.91
2019-05-11T13:27:35.496Z,101244.53
2019-05-11T13:30:58.611Z,101248.30
2019-05-11T13:34:21.772Z,101258.63
2019-05-11T13:37:44.876Z,101253.20
2019-05-11T13:41:08.150Z,101268.27
2019-05-11T13:44:31.347Z,101261.95
2019-05-11T13:47:56.111Z,101277.33
2019-05-11T13:51:19.582Z,101284.10
2019-05-11T13:54:43.261Z,101291.48
2019-05-11T13:58:08.297Z,101293.16
2019-05-11T14:01:31.550Z,101298.86
2019-05-11T14:04:54.755Z,101306.64
2019-05-11T14:08:18.523Z,101317.63
2019-05-11T14:11:44.927Z,101321.64
2019-05-11T14:15:08.622Z,101328.05
2019-05-11T14:18:32.401Z,101325.67
2019-05-11T14:21:55.435Z,101336.10
2019-05-11T14:25:18.936Z,101345.55
2019-05-11T14:28:42.234Z,101348.02
2019-05-11T14:32:05.333Z,101350.80
2019-05-11T14:35:28.617Z,101349.65
2019-05-11T14:38:51.864Z,101361.84
2019-05-11T14:42:14.879Z,101361.39
2019-05-11T14:45:38.206Z,101377.00
2019-05-11T14:49:01.597Z,101363.69
2019-05-11T14:52:25.003Z,101373.84
2019-05-11T14:55:48.965Z,101381.62
2019-05-11T14:59:12.283Z,101384.02
2019-05-11T15:02:49.386Z,101391.59
2019-05-11T15:06:12.802Z,101404.09
2019-05-11T15:09:37.680Z,101414.28
2019-05-11T15:13:01.244Z,101418.46
2019-05-11T15:16:24.333Z,101418.44
2019-05-11T15:19:48.829Z,101427.21
2019-05-11T15:23:12.548Z,101432.98
2019-05-11T15:26:37.955Z,101442.28
2019-05-11T15:30:01.285Z,101441.90
2019-05-11T15:33:24.289Z,101451.65
2019-05-11T15:36:48.989Z,101461.65
2019-05-11T15:40:14.163Z,101454.03
2019-05-11T15:43:38.778Z,101464.65
2019-05-11T15:47:02.325Z,101468.28
2019-05-11T15:50:28.434Z,101468.53
2019-05-11T15:53:51.409Z,101485.08
2019-05-11T15:57:14.512Z,101485.44
2019-05-11T16:00:39.965Z,101496.82
2019-05-11T16:04:02.969Z,101497.92
2019-05-11T16:07:28.153Z,101505.39
2019-05-11T16:10:52.708Z,101504.45
2019-05-11T16:14:15.883Z,101521.83
2019-05-11T16:17:40.306Z,101523.55
2019-05-11T16:21:03.610Z,101529.50
2019-05-11T16:24:27.232Z,101535.17
2019-05-11T16:27:50.504Z,101545.90
2019-05-11T16:31:13.657Z,101551.64
2019-05-11T16:34:38.165Z,101553.48
2019-05-11T16:38:01.368Z,101560.06
2019-05-11T16:41:28.879Z,101561.83
2019-05-11T16:44:51.413Z,101570.67
2019-05-11T16:48:14.474Z,101581.14
2019-05-11T16:51:38.861Z,101581.27
2019-05-11T16:55:02.162Z,101578.26
2019-05-11T16:58:27.688Z,101589.30
2019-05-11T17:01:50.437Z,101587.79
2019-05-11T17:05:25.338Z,101588.44
2019-05-11T17:08:39.004Z,101599.29
2019-05-11T17:12:02.143Z,101614.63
2019-05-11T17:15:25.409Z,101621.92
2019-05-11T17:18:49.302Z,101628.36
2019-05-11T17:22:12.357Z,101627.41
2019-05-11T17:25:37.777Z,101634.22
2019-05-11T17:29:00.413Z,101646.70
2019-05-11T17:32:23.426Z,101644.63
2019-05-11T17:35:47.997Z,101652.00
2019-05-11T17:39:11.344Z,101658.62
2019-05-11T17:42:34.408Z,101662.02
2019-05-11T17:45:58.530Z,101676.91
2019-05-11T17:49:21.904Z,101674.98
2019-05-11T17:52:45.068Z,101686.22
2019-05-11T17:56:09.152Z,101689.08
2019-05-11T17:59:32.300Z,101708.88
2019-05-11T18:02:58.188Z,101713.19
2019-05-11T18:06:20.671Z,101725.88
2019-05-11T18:09:44.261Z,101729.81
2019-05-11T18:13:07.809Z,101733.42
2019-05-11T18:16:30.816Z,101735.71
2019-05-11T18:19:54.230Z,101743.47
2019-05-11T18:23:17.770Z,101749.69
2019-05-11T18:26:40.847Z,101759.63
2019-05-11T18:30:04.073Z,101776.83
2019-05-11T18:33:27.840Z,101787.22
2019-05-11T18:36:51.498Z,101794.73
2019-05-11T18:40:14.691Z,101793.23
2019-05-11T18:43:37.931Z,101808.99
2019-05-11T18:47:01.043Z,101809.41
2019-05-11T18:50:30.441Z,101815.59
2019-05-11T18:53:49.982Z,101823.69
2019-05-11T18:57:13.001Z,101833.84
2019-05-11T19:00:38.127Z,101843.98
2019-05-11T19:04:01.127Z,101849.36
2019-05-11T19:07:24.196Z,101859.94
2019-05-11T19:10:48.769Z,101872.30
2019-05-11T19:14:12.062Z,101875.44
2019-05-11T19:17:35.337Z,101885.94
2019-05-11T19:20:58.853Z,101897.09
2019-05-11T19:24:22.054Z,101901.03
2019-05-11T19:27:45.547Z,101911.88
2019-05-11T19:31:11.260Z,101916.61
2019-05-11T19:34:34.007Z,101923.77
2019-05-11T19:37:57.845Z,101931.61
2019-05-11T19:41:23.641Z,101943.88
2019-05-11T19:44:47.898Z,101961.27
2019-05-11T19:48:11.580Z,101967.55
2019-05-11T19:51:34.759Z,101978.71
2019-05-11T19:54:58.624Z,101987.23
2019-05-11T19:58:21.718Z,101998.84
2019-05-11T20:01:44.766Z,101996.08
2019-05-11T20:05:08.104Z,102014.45
2019-05-11T20:08:31.647Z,102010.03
2019-05-11T20:11:54.703Z,102022.80
2019-05-11T20:15:18.826Z,102027.59
2019-05-11T20:18:42.328Z,102036.33
2019-05-11T20:22:05.519Z,102046.30
2019-05-11T20:25:29.117Z,102047.70
2019-05-11T20:28:52.414Z,102062.70
2019-05-11T20:32:16.169Z,102069.52
2019-05-11T20:35:39.331Z,102078.80
2019-05-11T20:39:03.336Z,102083.13
2019-05-11T20:42:30.248Z,102092.97
2019-05-11T20:45:56.116Z,102101.06
2019-05-11T20:49:18.457Z,102104.77
2019-05-11T20:52:43.211Z,102111.46
2019-05-11T20:56:08.423Z,102113.06
2019-05-11T20:59:31.372Z,102120.80
2019-05-11T21:02:54.550Z,102120.64
2019-05-11T21:06:18.453Z,102133.25
2019-05-11T21:09:41.637Z,102138.29
2019-05-11T21:13:04.734Z,102148.47
2019-05-11T21:16:27.825Z,102157.20
2019-05-11T21:19:50.974Z,102154.27
2019-05-11T21:23:14.114Z,102152.61
2019-05-11T21:26:38.505Z,102157.62
2019-05-11T21:30:02.181Z,102174.11
2019-05-11T21:33:25.350Z,102180.58
2019-05-11T21:36:48.544Z,102192.24
2019-05-11T21:40:12.084Z,102201.33
2019-05-11T21:43:37.645Z,102210.06
2019-05-11T21:47:00.827Z,102212.77
2019-05-11T21:50:23.899Z,102214.37
2019-05-11T21:53:48.779Z,102214.81
2019-05-11T21:57:11.911Z,102225.31
2019-05-11T22:00:35.127Z,102219.98
2019-05-11T22:04:00.147Z,102222.87
2019-05-11T22:07:23.420Z,102234.27
2019-05-11T22:10:46.627Z,102234.64
2019-05-11T22:14:09.901Z,102241.86
2019-05-11T22:17:32.967Z,102248.25
2019-05-11T22:20:57.895Z,102250.50
2019-05-11T22:24:21.071Z,102261.88
2019-05-11T22:27:44.139Z,102267.98
2019-05-11T22:31:07.824Z,102270.68
2019-05-11T22:34:31.181Z,102282.49
2019-05-11T22:37:54.197Z,102287.05
2019-05-11T22:41:18.003Z,102293.05
2019-05-11T22:44:42.048Z,102294.48
2019-05-11T22:48:05.067Z,102296.02
2019-05-11T22:51:28.785Z,102298.27
2019-05-11T22:54:51.970Z,102299.41
2019-05-11T22:58:15.086Z,102318.03
2019-05-11T23:01:38.158Z,102325.73
2019-05-11T23:05:01.407Z,102334.56
2019-05-11T23:08:25.676Z,102324.65
2019-05-11T23:11:49.021Z,102331.35
2019-05-11T23:15:12.744Z,102334.00
2019-05-11T23:18:35.859Z,102337.81
2019-05-11T23:21:58.883Z,102344.82
2019-05-11T23:25:22.211Z,102345.77
2019-05-11T23:28:45.288Z,102358.88
2019-05-11T23:32:09.079Z,102368.39
2019-05-11T23:35:32.183Z,102367.02
2019-05-11T23:38:55.440Z,102379.77
2019-05-11T23:42:18.484Z,102387.42
2019-05-11T23:45:41.668Z,102398.59
2019-05-11T23:49:04.704Z,102399.27
2019-05-11T23:52:29.520Z,102402.05
2019-05-11T23:55:52.882Z,102409.75
2019-05-11T23:59:15.931Z,102405.38
